Time;durP1;ratioP1;P1;durP2;ratioP2;P2;SDS_P1;SDS_P2;PMS_P1;PMS_P2;Temp;Humidity;BMP_temperature;BMP_pressure;BME280_temperature;BME280_humidity;BME280_pressure;Samples;Min_cycle;Max_cycle;Signal;HPM_P1;HPM_P2
2022/07/19 00:00:37;;;;;;;2.93;1.83;;;23.70;54.70;;;;;;4993082;28;20431;-74
2022/07/19 00:03:05;;;;;;;1.70;1.47;;;23.70;55.00;;;;;;5011028;28;20431;-74
2022/07/19 00:05:34;;;;;;;4.07;1.73;;;23.70;54.70;;;;;;5010806;28;20427;-74
2022/07/19 00:08:03;;;;;;;3.87;1.60;;;23.70;54.80;;;;;;4992803;28;20451;-74
2022/07/19 00:10:40;;;;;;;5.13;1.93;;;23.80;55.00;;;;;;5010892;28;20489;-74
2022/07/19 00:13:06;;;;;;;7.90;1.87;;;23.70;55.60;;;;;;5010834;28;20481;-76
2022/07/19 00:15:50;;;;;;;3.27;2.00;;;23.70;55.10;;;;;;4993014;28;20468;-77
2022/07/19 00:18:19;;;;;;;3.53;2.17;;;23.70;55.30;;;;;;5010563;28;20207;-75
2022/07/19 00:20:51;;;;;;;3.43;1.97;;;23.60;55.40;;;;;;4992868;28;20463;-75
2022/07/19 00:23:17;;;;;;;4.70;2.00;;;23.70;55.20;;;;;;5010672;28;20462;-76
2022/07/19 00:25:42;;;;;;;2.60;1.90;;;23.60;55.20;;;;;;5010671;28;20459;-75
2022/07/19 00:28:08;;;;;;;6.43;2.20;;;23.60;55.50;;;;;;5010307;28;20287;-75
2022/07/19 00:30:36;;;;;;;2.00;1.90;;;23.60;55.40;;;;;;5010286;28;20199;-74
2022/07/19 00:33:08;;;;;;;2.23;2.03;;;23.60;55.50;;;;;;5010379;28;20673;-75
2022/07/19 00:35:40;;;;;;;2.50;2.00;;;23.50;55.40;;;;;;5010608;28;20648;-75
2022/07/19 00:38:25;;;;;;;3.13;1.97;;;23.50;55.50;;;;;;5010226;28;20448;-75
2022/07/19 00:41:15;;;;;;;5.20;2.17;;;23.50;55.80;;;;;;5010025;28;20461;-75
2022/07/19 00:44:01;;;;;;;8.00;2.07;;;23.40;56.00;;;;;;5010378;28;20462;-75
2022/07/19 00:46:26;;;;;;;4.70;1.97;;;23.30;56.40;;;;;;4992633;28;20451;-75
2022/07/19 00:48:52;;;;;;;4.93;2.40;;;23.30;56.30;;;;;;4992056;28;20439;-76
2022/07/19 00:51:18;;;;;;;3.80;1.90;;;23.30;56.50;;;;;;5009853;28;20200;-76
2022/07/19 00:53:45;;;;;;;5.20;2.53;;;23.30;56.60;;;;;;5009742;28;20227;-76
2022/07/19 00:56:12;;;;;;;5.80;1.90;;;23.30;56.60;;;;;;5009550;28;20418;-76
2022/07/19 00:58:40;;;;;;;4.67;2.17;;;23.30;57.10;;;;;;5009765;28;20973;-76
2022/07/19 01:01:08;;;;;;;2.40;1.50;;;23.20;56.90;;;;;;5009722;28;20934;-76
2022/07/19 01:03:39;;;;;;;2.17;1.60;;;23.20;57.20;;;;;;4991686;28;20469;-75
2022/07/19 01:06:06;;;;;;;3.00;1.73;;;23.20;57.10;;;;;;5009271;28;20429;-77
2022/07/19 01:08:32;;;;;;;2.20;1.70;;;23.10;57.10;;;;;;5009761;28;20430;-76
2022/07/19 01:10:57;;;;;;;3.47;1.93;;;23.20;57.30;;;;;;4991622;28;20434;-76
2022/07/19 01:13:23;;;;;;;2.17;1.90;;;23.10;57.30;;;;;;4975400;28;20217;-76
2022/07/19 01:15:49;;;;;;;2.43;2.23;;;23.10;57.50;;;;;;5009349;28;20470;-75
2022/07/19 01:18:15;;;;;;;2.30;2.10;;;23.10;57.50;;;;;;5009300;28;20443;-76
2022/07/19 01:20:41;;;;;;;3.13;1.90;;;23.10;57.70;;;;;;5009515;28;20431;-76
2022/07/19 01:23:07;;;;;;;8.40;2.07;;;23.00;57.90;;;;;;5010551;28;20666;-75
2022/07/19 01:25:35;;;;;;;3.17;1.60;;;22.90;58.00;;;;;;4993336;28;20429;-76
2022/07/19 01:28:02;;;;;;;1.70;1.60;;;22.90;58.10;;;;;;4994560;28;20211;-75
2022/07/19 01:30:28;;;;;;;3.03;2.50;;;22.90;58.30;;;;;;5014579;28;20502;-75
2022/07/19 01:32:54;;;;;;;3.60;2.20;;;22.90;59.00;;;;;;5013684;28;20562;-75
2022/07/19 01:35:21;;;;;;;5.37;2.50;;;22.80;59.20;;;;;;5012583;28;20241;-76
2022/07/19 01:37:49;;;;;;;5.93;2.20;;;22.70;61.80;;;;;;4993196;28;20472;-75
2022/07/19 01:40:16;;;;;;;4.23;3.00;;;22.20;66.80;;;;;;5009081;28;20473;-75
2022/07/19 01:42:42;;;;;;;3.67;2.70;;;21.90;70.00;;;;;;5008908;28;20420;-75
2022/07/19 01:45:09;;;;;;;3.70;2.40;;;21.60;74.80;;;;;;5009541;28;20425;-76
2022/07/19 01:47:35;;;;;;;5.70;2.73;;;21.30;78.40;;;;;;4991373;28;20499;-76
2022/07/19 01:50:02;;;;;;;8.80;2.90;;;21.10;81.20;;;;;;4992400;28;20478;-78
2022/07/19 01:52:28;;;;;;;3.97;3.13;;;20.80;85.50;;;;;;5010573;28;20425;-76
2022/07/19 01:54:53;;;;;;;6.07;3.13;;;20.60;90.10;;;;;;4991110;28;20451;-76
2022/07/19 01:57:19;;;;;;;6.30;3.40;;;20.40;91.50;;;;;;5008728;28;20216;-76
2022/07/19 01:59:45;;;;;;;4.13;2.80;;;20.10;93.10;;;;;;5008797;28;20651;-75
2022/07/19 02:02:10;;;;;;;11.80;3.20;;;20.00;94.70;;;;;;5008746;28;20213;-75
2022/07/19 02:04:36;;;;;;;5.30;3.27;;;19.80;95.80;;;;;;4991127;28;20189;-75
2022/07/19 02:07:02;;;;;;;5.27;3.40;;;19.70;97.00;;;;;;5008816;28;20351;-75
2022/07/19 02:09:28;;;;;;;7.07;3.10;;;19.60;97.60;;;;;;5008737;28;20189;-75
2022/07/19 02:11:54;;;;;;;5.47;3.50;;;19.50;98.00;;;;;;5008836;28;20447;-74
2022/07/19 02:14:19;;;;;;;4.23;3.30;;;19.30;99.00;;;;;;4974855;28;20216;-74
2022/07/19 02:16:45;;;;;;;10.93;3.43;;;19.30;99.60;;;;;;4990728;28;20217;-74
2022/07/19 02:19:11;;;;;;;4.23;2.90;;;19.20;99.90;;;;;;5010245;28;20189;-75
2022/07/19 02:21:37;;;;;;;2.77;2.57;;;19.20;99.90;;;;;;5012601;28;20188;-74
2022/07/19 02:24:05;;;;;;;3.93;2.63;;;19.10;99.90;;;;;;5012517;28;20235;-74
2022/07/19 02:26:31;;;;;;;7.10;3.20;;;19.00;99.90;;;;;;4978386;28;20629;-74
2022/07/19 02:28:57;;;;;;;4.30;3.00;;;18.90;99.90;;;;;;5012453;28;20420;-74
2022/07/19 02:31:23;;;;;;;4.17;3.00;;;18.90;99.90;;;;;;4995261;28;20762;-74
2022/07/19 02:33:49;;;;;;;4.60;3.00;;;18.80;99.90;;;;;;4994893;28;20314;-73
2022/07/19 02:36:15;;;;;;;5.27;3.13;;;18.80;99.90;;;;;;5012777;28;20474;-74
2022/07/19 02:38:41;;;;;;;5.27;3.33;;;18.80;99.90;;;;;;4994546;28;20456;-74
2022/07/19 02:41:06;;;;;;;4.13;3.00;;;18.80;99.90;;;;;;4994823;28;20474;-74
2022/07/19 02:43:32;;;;;;;4.93;3.03;;;18.70;99.90;;;;;;5012778;28;20189;-74
2022/07/19 02:45:58;;;;;;;4.83;3.00;;;18.70;99.90;;;;;;4995189;28;20189;-74
2022/07/19 02:48:23;;;;;;;5.30;3.00;;;18.70;99.90;;;;;;5011869;28;20706;-74
2022/07/19 02:50:49;;;;;;;3.23;2.93;;;18.70;99.90;;;;;;4994303;28;20676;-75
2022/07/19 02:53:15;;;;;;;6.13;2.87;;;18.70;99.90;;;;;;5012096;28;20248;-76
2022/07/19 02:55:40;;;;;;;8.30;2.87;;;18.60;99.90;;;;;;5012264;28;20185;-75
2022/07/19 02:58:06;;;;;;;6.73;2.73;;;18.60;99.90;;;;;;4994422;28;20259;-75
2022/07/19 03:00:32;;;;;;;5.13;2.40;;;18.60;99.90;;;;;;4994414;28;20532;-75
2022/07/19 03:05:43;;;;;;;2.57;2.37;;;18.50;99.90;;;;;;5012611;28;20426;-75
2022/07/19 03:08:09;;;;;;;6.30;2.60;;;18.50;99.90;;;;;;4978743;28;20485;-75
2022/07/19 03:10:34;;;;;;;8.30;2.60;;;18.40;99.90;;;;;;4994686;28;20435;-75
2022/07/19 03:13:00;;;;;;;6.40;2.63;;;18.40;99.90;;;;;;4994641;28;20231;-75
2022/07/19 03:15:26;;;;;;;4.03;2.40;;;18.40;99.90;;;;;;5012315;28;20250;-75
2022/07/19 03:17:51;;;;;;;5.10;2.50;;;18.40;99.90;;;;;;5012347;28;20705;-75
2022/07/19 03:20:17;;;;;;;4.70;2.63;;;18.40;99.90;;;;;;5017967;28;20229;-75
2022/07/19 03:22:43;;;;;;;5.10;2.87;;;18.40;99.90;;;;;;4998885;28;20220;-76
2022/07/19 03:25:08;;;;;;;5.63;2.60;;;18.40;99.90;;;;;;4978383;28;20513;-76
2022/07/19 03:27:34;;;;;;;4.57;2.17;;;18.40;99.90;;;;;;5011961;28;20271;-75
2022/07/19 03:30:00;;;;;;;4.70;2.67;;;18.40;99.90;;;;;;4993953;28;20189;-76
2022/07/19 03:32:26;;;;;;;3.53;2.43;;;18.50;99.90;;;;;;5012437;28;20432;-76
2022/07/19 03:34:52;;;;;;;4.60;2.43;;;18.60;99.90;;;;;;4994502;28;20480;-77
2022/07/19 03:37:17;;;;;;;3.70;2.47;;;18.50;99.90;;;;;;5012660;28;20223;-77
2022/07/19 03:39:43;;;;;;;2.40;2.20;;;18.30;99.90;;;;;;5013420;28;20207;-77
2022/07/19 03:42:09;;;;;;;5.63;2.63;;;18.40;99.90;;;;;;4995482;28;20296;-77
2022/07/19 03:44:34;;;;;;;4.30;2.97;;;18.40;99.90;;;;;;4979523;28;20445;-77
2022/07/19 03:47:00;;;;;;;4.70;2.23;;;18.40;99.90;;;;;;4980489;28;20212;-77
2022/07/19 03:49:25;;;;;;;4.10;2.23;;;18.40;99.90;;;;;;4998567;28;20282;-77
2022/07/19 03:51:51;;;;;;;3.47;2.70;;;18.40;99.90;;;;;;4997038;28;20201;-76
2022/07/19 03:54:17;;;;;;;4.17;3.07;;;18.40;99.90;;;;;;4996505;28;20978;-77
2022/07/19 03:56:42;;;;;;;5.27;3.50;;;18.40;99.90;;;;;;4998223;28;20255;-77
2022/07/19 03:59:08;;;;;;;4.53;2.97;;;18.40;99.90;;;;;;4996662;28;20300;-77
2022/07/19 04:01:34;;;;;;;5.13;3.40;;;18.40;99.90;;;;;;4997756;28;20246;-77
2022/07/19 04:03:59;;;;;;;10.77;3.27;;;18.40;99.90;;;;;;4998844;28;20266;-77
2022/07/19 04:06:25;;;;;;;6.93;2.50;;;18.40;99.90;;;;;;5015603;28;20204;-77
2022/07/19 04:08:51;;;;;;;3.40;3.10;;;18.40;99.90;;;;;;4997915;28;20583;-77
2022/07/19 04:11:16;;;;;;;5.20;3.10;;;18.40;99.90;;;;;;4999274;28;20244;-77
2022/07/19 04:13:42;;;;;;;3.43;2.67;;;18.50;99.90;;;;;;5012021;28;20205;-77
2022/07/19 04:16:08;;;;;;;3.40;2.40;;;18.50;99.90;;;;;;4993282;28;20576;-77
2022/07/19 04:18:33;;;;;;;8.90;3.47;;;18.40;99.90;;;;;;4993556;28;20266;-77
2022/07/19 04:20:59;;;;;;;5.37;3.30;;;18.40;99.90;;;;;;4993286;28;20528;-77
2022/07/19 04:23:25;;;;;;;4.30;3.90;;;18.40;99.90;;;;;;5010675;28;20196;-76
2022/07/19 04:25:50;;;;;;;4.37;3.70;;;18.40;99.90;;;;;;4993262;28;20717;-77
2022/07/19 04:28:16;;;;;;;7.63;3.57;;;18.50;99.90;;;;;;5010788;28;20205;-77
2022/07/19 04:30:41;;;;;;;4.80;3.30;;;18.50;99.90;;;;;;4976857;28;20203;-76
2022/07/19 04:33:07;;;;;;;6.43;3.70;;;18.60;99.90;;;;;;4976955;28;20216;-76
2022/07/19 04:35:33;;;;;;;9.97;3.53;;;18.50;99.90;;;;;;4976734;28;20199;-77
2022/07/19 04:37:58;;;;;;;3.57;3.00;;;18.60;99.90;;;;;;4992786;28;20208;-77
2022/07/19 04:40:24;;;;;;;6.70;2.80;;;18.60;99.90;;;;;;4992423;28;20632;-77
2022/07/19 04:42:50;;;;;;;3.77;2.70;;;18.70;99.90;;;;;;4991825;28;20209;-76
2022/07/19 04:45:16;;;;;;;5.00;3.07;;;18.80;99.90;;;;;;5010451;28;20191;-76
2022/07/19 04:47:41;;;;;;;8.47;3.53;;;18.80;99.90;;;;;;4992606;28;20288;-77
2022/07/19 04:50:08;;;;;;;6.40;3.23;;;18.80;99.90;;;;;;4992345;28;20885;-77
2022/07/19 04:52:33;;;;;;;5.97;3.13;;;18.80;99.90;;;;;;4976267;28;20216;-77
2022/07/19 04:54:59;;;;;;;4.83;3.40;;;18.90;99.90;;;;;;4975683;28;20525;-77
2022/07/19 04:57:25;;;;;;;5.80;3.57;;;18.90;99.90;;;;;;4991832;28;20861;-77
2022/07/19 04:59:50;;;;;;;6.30;3.10;;;19.00;99.90;;;;;;5008796;28;20519;-77
2022/07/19 05:02:16;;;;;;;4.67;3.10;;;19.00;99.90;;;;;;4975000;28;20212;-76
2022/07/19 05:04:42;;;;;;;4.93;2.80;;;19.20;99.90;;;;;;5008808;28;20561;-76
2022/07/19 05:07:07;;;;;;;3.70;3.00;;;19.30;99.90;;;;;;4990516;28;20575;-77
2022/07/19 05:09:33;;;;;;;5.80;3.40;;;19.30;99.90;;;;;;5008925;28;20768;-77
2022/07/19 05:11:58;;;;;;;3.30;3.00;;;19.50;99.90;;;;;;5012227;28;20646;-77
2022/07/19 05:14:24;;;;;;;6.30;3.07;;;19.50;99.90;;;;;;4993375;28;20658;-78
2022/07/19 05:16:51;;;;;;;5.07;3.37;;;19.50;99.90;;;;;;5010905;28;20209;-77
2022/07/19 05:19:17;;;;;;;4.50;3.63;;;19.50;99.90;;;;;;5011354;28;20216;-77
2022/07/19 05:21:43;;;;;;;6.50;3.63;;;19.50;99.90;;;;;;5011252;28;20957;-77
2022/07/19 05:24:09;;;;;;;6.03;3.83;;;19.60;99.90;;;;;;5011344;28;20193;-78
2022/07/19 05:26:35;;;;;;;7.60;3.30;;;19.70;99.90;;;;;;4993097;28;20451;-77
2022/07/19 05:29:02;;;;;;;5.60;3.10;;;19.70;99.90;;;;;;5011128;28;20189;-77
2022/07/19 05:31:28;;;;;;;6.90;2.97;;;19.80;99.90;;;;;;4992176;28;21092;-77
2022/07/19 05:33:54;;;;;;;6.90;3.33;;;19.90;99.90;;;;;;4992950;28;21035;-78
2022/07/19 05:36:19;;;;;;;4.43;3.23;;;20.10;99.90;;;;;;5011286;28;20462;-77
2022/07/19 05:38:45;;;;;;;8.27;4.70;;;20.20;99.90;;;;;;4992861;28;20311;-77
2022/07/19 05:41:11;;;;;;;7.47;4.10;;;20.30;99.90;;;;;;4993104;28;20243;-77
2022/07/19 05:43:38;;;;;;;7.30;3.90;;;20.40;99.90;;;;;;4993960;28;20692;-77
2022/07/19 05:46:05;;;;;;;6.80;3.83;;;20.50;99.90;;;;;;4993847;28;20235;-78
2022/07/19 05:48:31;;;;;;;6.40;3.43;;;20.40;99.90;;;;;;5011906;28;20482;-77
2022/07/19 05:50:58;;;;;;;6.80;3.53;;;20.50;99.90;;;;;;4994274;28;21053;-77
2022/07/19 05:53:24;;;;;;;6.97;3.20;;;20.60;99.90;;;;;;4994003;28;20787;-77
2022/07/19 05:55:49;;;;;;;9.40;3.93;;;20.90;99.90;;;;;;5013633;28;20515;-77
2022/07/19 05:58:17;;;;;;;5.90;3.80;;;20.90;99.90;;;;;;4995342;28;20542;-77
2022/07/19 06:01:17;;;;;;;3.40;3.10;;;20.90;99.90;;;;;;4979434;28;20273;-77
2022/07/19 06:03:30;;;;;;;8.33;4.17;;;21.10;99.90;;;;;;4997786;28;20436;-77
2022/07/19 06:05:55;;;;;;;7.47;3.50;;;21.10;99.90;;;;;;5012740;28;20443;-77
2022/07/19 06:08:21;;;;;;;6.70;4.17;;;21.10;99.90;;;;;;4977692;28;20221;-77
2022/07/19 06:10:47;;;;;;;3.73;3.47;;;21.20;99.90;;;;;;4994573;28;20204;-78
2022/07/19 06:13:12;;;;;;;3.80;3.50;;;21.30;99.90;;;;;;4995360;28;20216;-77
2022/07/19 06:15:38;;;;;;;9.63;3.83;;;21.40;99.90;;;;;;5013690;28;20230;-76
2022/07/19 06:18:04;;;;;;;8.80;3.60;;;21.50;99.90;;;;;;5014336;28;20220;-77
2022/07/19 06:20:29;;;;;;;5.40;4.10;;;21.70;99.90;;;;;;4996358;28;20192;-77
2022/07/19 06:22:55;;;;;;;4.37;3.33;;;21.80;99.90;;;;;;4996208;28;20186;-77
2022/07/19 06:25:21;;;;;;;11.77;3.73;;;21.90;99.90;;;;;;5014330;28;20187;-77
2022/07/19 06:27:46;;;;;;;7.50;4.23;;;22.00;99.90;;;;;;4997702;28;20221;-77
2022/07/19 06:30:12;;;;;;;5.63;4.10;;;22.10;99.90;;;;;;5015429;28;20663;-78
2022/07/19 06:32:38;;;;;;;9.50;3.93;;;22.20;99.90;;;;;;4998384;28;20187;-76
2022/07/19 06:35:04;;;;;;;4.40;3.70;;;22.40;99.90;;;;;;4978289;28;20320;-76
2022/07/19 06:37:29;;;;;;;5.37;3.63;;;22.40;99.90;;;;;;4992978;28;20205;-77
2022/07/19 06:39:55;;;;;;;5.63;3.07;;;22.50;99.60;;;;;;4976719;28;20935;-77
2022/07/19 06:42:21;;;;;;;8.47;3.80;;;22.60;99.90;;;;;;5011983;28;20198;-76
2022/07/19 06:44:46;;;;;;;6.50;4.20;;;22.80;99.50;;;;;;4980448;28;20198;-77
2022/07/19 06:47:12;;;;;;;5.90;3.87;;;22.90;99.90;;;;;;5014944;28;20210;-77
2022/07/19 06:49:37;;;;;;;7.73;4.20;;;23.10;99.10;;;;;;4979561;28;20282;-77
2022/07/19 06:52:03;;;;;;;5.83;4.10;;;23.20;99.90;;;;;;4983763;28;20263;-74
2022/07/19 06:54:29;;;;;;;6.27;3.77;;;23.30;98.70;;;;;;4999105;28;20222;-75
2022/07/19 06:56:55;;;;;;;8.20;3.83;;;23.50;98.40;;;;;;5014287;28;20239;-78
2022/07/19 06:59:20;;;;;;;4.23;3.50;;;23.50;98.30;;;;;;5030061;28;20664;-75
2022/07/19 07:01:46;;;;;;;8.13;3.73;;;23.60;98.70;;;;;;5006767;28;20203;-75
2022/07/19 07:04:12;;;;;;;3.33;2.97;;;23.70;98.10;;;;;;5016831;28;20223;-75
2022/07/19 07:06:38;;;;;;;6.87;3.90;;;23.70;98.10;;;;;;5010949;28;20446;-76
2022/07/19 07:09:04;;;;;;;5.40;3.33;;;23.70;99.00;;;;;;5010749;28;20193;-76
2022/07/19 07:11:30;;;;;;;5.33;3.30;;;23.80;98.10;;;;;;5010393;28;20262;-77
2022/07/19 07:13:56;;;;;;;4.77;3.70;;;23.80;99.90;;;;;;5010157;28;20865;-76
2022/07/19 07:16:22;;;;;;;7.33;3.67;;;23.80;99.90;;;;;;4992726;28;20419;-76
2022/07/19 07:18:47;;;;;;;3.70;3.40;;;23.80;99.90;;;;;;4992822;28;20417;-76
2022/07/19 07:21:13;;;;;;;3.97;3.00;;;24.00;99.90;;;;;;5010244;28;21020;-76
2022/07/19 07:23:39;;;;;;;7.60;3.23;;;24.10;99.90;;;;;;4992467;28;20192;-77
2022/07/19 07:26:05;;;;;;;8.10;3.83;;;24.20;99.90;;;;;;4992308;28;20662;-77
2022/07/19 07:28:31;;;;;;;4.80;3.17;;;24.20;99.90;;;;;;4992280;28;20196;-77
2022/07/19 07:30:57;;;;;;;3.80;3.50;;;24.30;99.90;;;;;;4976286;28;20531;-76
2022/07/19 07:33:23;;;;;;;9.03;3.87;;;24.40;99.90;;;;;;5010199;28;21043;-76
2022/07/19 07:35:49;;;;;;;5.93;3.47;;;24.40;99.90;;;;;;5010285;28;20188;-77
2022/07/19 07:38:14;;;;;;;7.90;3.10;;;24.50;99.90;;;;;;4976106;28;20644;-77
2022/07/19 07:40:40;;;;;;;9.90;3.77;;;24.60;99.40;;;;;;4992682;28;20288;-76
2022/07/19 07:43:06;;;;;;;3.17;2.93;;;24.60;98.80;;;;;;4992899;28;20189;-76
2022/07/19 07:45:32;;;;;;;7.97;2.90;;;24.70;97.50;;;;;;4991803;28;20227;-76
2022/07/19 07:47:58;;;;;;;5.00;2.73;;;24.70;97.30;;;;;;5009708;28;20855;-76
2022/07/19 07:50:24;;;;;;;3.73;3.43;;;24.80;96.90;;;;;;5009658;28;20651;-76
2022/07/19 07:52:49;;;;;;;2.20;2.00;;;25.00;96.80;;;;;;4991637;28;20717;-76
2022/07/19 07:55:15;;;;;;;2.63;2.40;;;25.00;96.40;;;;;;4992002;28;20420;-76
2022/07/19 07:57:41;;;;;;;2.30;2.10;;;25.20;94.30;;;;;;5009762;28;20280;-77
2022/07/19 08:00:09;;;;;;;4.40;2.00;;;25.30;89.10;;;;;;4992036;28;21003;-76
2022/07/19 08:02:42;;;;;;;7.03;1.60;;;25.40;81.60;;;;;;5009872;28;20186;-76
2022/07/19 08:05:09;;;;;;;2.77;1.77;;;25.90;68.60;;;;;;5009518;28;20452;-77
2022/07/19 08:07:35;;;;;;;5.27;2.20;;;26.10;68.10;;;;;;4991807;28;20456;-76
2022/07/19 08:10:03;;;;;;;2.23;1.40;;;26.40;65.20;;;;;;5009318;28;20413;-77
2022/07/19 08:12:28;;;;;;;6.27;2.00;;;26.60;64.00;;;;;;5009295;28;20495;-77
2022/07/19 08:14:54;;;;;;;2.07;1.60;;;26.90;61.80;;;;;;4991662;28;20559;-76
2022/07/19 08:17:19;;;;;;;2.37;2.17;;;27.10;60.80;;;;;;4991389;28;20208;-76
2022/07/19 08:19:45;;;;;;;2.37;2.00;;;27.30;58.60;;;;;;4991288;28;20188;-76
2022/07/19 08:22:15;;;;;;;3.53;2.33;;;27.40;59.40;;;;;;4991278;28;20188;-76
2022/07/19 08:24:41;;;;;;;7.53;2.30;;;27.60;57.70;;;;;;5009224;28;20185;-76
2022/07/19 08:27:06;;;;;;;2.50;1.70;;;27.80;57.70;;;;;;4991764;28;20448;-76
2022/07/19 08:29:32;;;;;;;8.73;1.90;;;27.90;57.10;;;;;;4991611;28;20193;-77
2022/07/19 08:31:58;;;;;;;4.77;1.87;;;28.00;55.30;;;;;;5009388;28;20185;-76
2022/07/19 08:34:23;;;;;;;2.40;2.00;;;28.20;57.40;;;;;;5009323;28;20560;-77
2022/07/19 08:36:49;;;;;;;2.13;1.77;;;28.30;55.30;;;;;;4991719;28;20546;-76
2022/07/19 08:39:14;;;;;;;7.30;2.30;;;28.40;54.10;;;;;;4991363;28;20201;-76
2022/07/19 08:41:44;;;;;;;5.67;2.37;;;28.60;53.80;;;;;;4991340;28;20728;-76
2022/07/19 08:44:11;;;;;;;9.93;2.60;;;28.70;52.10;;;;;;4991662;28;20263;-77
2022/07/19 08:46:38;;;;;;;6.43;2.30;;;28.80;50.80;;;;;;5009135;28;20451;-76
2022/07/19 08:49:04;;;;;;;5.50;2.00;;;28.90;50.90;;;;;;4975343;28;20443;-76
2022/07/19 08:51:30;;;;;;;2.23;2.03;;;29.00;51.10;;;;;;5009039;28;20451;-76
2022/07/19 08:53:57;;;;;;;6.30;2.40;;;29.10;50.90;;;;;;5009244;28;20554;-76
2022/07/19 08:59:07;;;;;;;8.43;2.60;;;29.30;48.70;;;;;;5012252;28;20420;-77
2022/07/19 09:01:33;;;;;;;3.13;2.07;;;29.40;48.70;;;;;;5010038;28;20412;-76
2022/07/19 09:04:17;;;;;;;5.53;2.47;;;29.50;48.30;;;;;;4992080;28;20196;-77
2022/07/19 09:06:47;;;;;;;5.47;2.50;;;29.70;47.60;;;;;;5010044;28;20444;-77
2022/07/19 09:09:19;;;;;;;4.10;2.37;;;29.80;47.40;;;;;;5010087;28;20419;-77
2022/07/19 09:11:51;;;;;;;4.10;2.07;;;29.90;46.60;;;;;;5010154;28;20422;-77
2022/07/19 09:14:22;;;;;;;6.87;2.27;;;30.00;46.90;;;;;;5009785;28;20562;-77
2022/07/19 09:17:12;;;;;;;5.00;2.97;;;30.00;46.80;;;;;;5009060;28;20488;-77
2022/07/19 09:19:43;;;;;;;4.77;2.40;;;30.10;45.80;;;;;;4991195;28;20798;-77
2022/07/19 09:22:11;;;;;;;8.00;2.97;;;30.10;45.80;;;;;;4991182;28;20436;-76
2022/07/19 09:24:49;;;;;;;7.43;2.53;;;30.20;46.30;;;;;;5009168;28;20475;-77
2022/07/19 09:27:17;;;;;;;6.10;2.60;;;30.30;45.50;;;;;;5008211;28;20447;-77
2022/07/19 09:29:45;;;;;;;4.73;2.40;;;30.50;45.70;;;;;;4989888;28;20432;-77
2022/07/19 09:32:18;;;;;;;3.10;2.23;;;30.60;46.00;;;;;;5007908;28;20465;-77
2022/07/19 09:34:54;;;;;;;6.63;2.83;;;30.70;46.40;;;;;;5007726;28;20467;-77
2022/07/19 09:37:22;;;;;;;5.70;2.83;;;30.90;45.80;;;;;;5007891;28;20431;-76
2022/07/19 09:39:51;;;;;;;2.50;2.40;;;31.00;45.00;;;;;;5007631;28;20983;-76
2022/07/19 09:42:34;;;;;;;6.80;2.50;;;31.20;44.10;;;;;;5007830;28;20423;-77
2022/07/19 09:45:09;;;;;;;6.10;2.63;;;31.30;43.70;;;;;;5007960;28;20416;-77
2022/07/19 09:47:41;;;;;;;18.83;2.73;;;31.30;43.40;;;;;;4989842;28;20621;-76
2022/07/19 09:50:14;;;;;;;7.13;2.80;;;31.40;42.60;;;;;;4990952;28;20435;-76
2022/07/19 09:52:40;;;;;;;5.83;3.03;;;31.40;41.60;;;;;;4975581;28;20467;-77
2022/07/19 09:55:08;;;;;;;3.77;3.20;;;31.60;42.70;;;;;;4993046;28;20472;-77
2022/07/19 09:57:45;;;;;;;5.20;3.20;;;31.70;41.90;;;;;;5010977;28;20440;-77
2022/07/19 10:00:13;;;;;;;3.10;2.80;;;31.70;41.00;;;;;;5011186;28;20412;-77
2022/07/19 10:02:42;;;;;;;3.20;2.90;;;31.90;43.50;;;;;;4991484;28;20523;-77
2022/07/19 10:05:10;;;;;;;11.07;2.90;;;32.00;40.60;;;;;;5009025;28;20428;-77
2022/07/19 10:07:36;;;;;;;7.90;2.97;;;32.20;41.20;;;;;;4990830;28;21000;-77
2022/07/19 10:10:13;;;;;;;2.30;2.13;;;32.30;42.00;;;;;;5008477;28;20566;-77
2022/07/19 10:12:40;;;;;;;4.10;2.50;;;32.40;42.50;;;;;;4975339;28;20787;-77
2022/07/19 10:15:09;;;;;;;4.27;2.60;;;32.50;41.20;;;;;;5008221;28;20478;-77
2022/07/19 10:18:10;;;;;;;5.13;3.20;;;32.60;41.30;;;;;;4990571;28;20455;-76
2022/07/19 10:20:37;;;;;;;4.80;3.50;;;32.70;40.50;;;;;;5008661;28;20403;-77
2022/07/19 10:23:04;;;;;;;4.73;2.83;;;32.90;40.70;;;;;;5008800;28;20416;-76
2022/07/19 10:25:43;;;;;;;6.77;3.80;;;33.00;40.00;;;;;;5008725;28;20415;-77
2022/07/19 10:28:37;;;;;;;5.13;3.00;;;33.10;40.20;;;;;;5007904;28;20444;-78
2022/07/19 10:31:27;;;;;;;6.77;3.80;;;33.30;41.80;;;;;;4998971;28;20519;-77
2022/07/19 10:34:08;;;;;;;3.50;3.20;;;33.20;38.00;;;;;;4990108;28;20537;-77
2022/07/19 10:36:37;;;;;;;6.50;3.40;;;33.10;38.70;;;;;;5007816;28;20443;-76
2022/07/19 10:39:19;;;;;;;9.00;3.33;;;33.30;39.40;;;;;;4990156;28;20521;-76
2022/07/19 10:42:10;;;;;;;7.20;3.03;;;33.30;38.70;;;;;;5011243;28;20416;-76
2022/07/19 10:44:56;;;;;;;5.30;3.23;;;33.40;37.00;;;;;;5011534;28;20458;-77
2022/07/19 10:47:39;;;;;;;5.27;3.07;;;33.30;37.20;;;;;;4994731;28;20436;-76
2022/07/19 10:50:18;;;;;;;6.03;3.07;;;33.40;37.90;;;;;;5011834;28;20392;-76
2022/07/19 10:52:45;;;;;;;3.63;2.70;;;33.50;38.10;;;;;;4977506;28;20416;-77
2022/07/19 10:55:27;;;;;;;4.17;3.10;;;33.50;37.30;;;;;;5011227;28;20455;-78
2022/07/19 10:58:07;;;;;;;6.10;3.00;;;33.70;37.00;;;;;;5010809;28;20428;-77
2022/07/19 11:00:44;;;;;;;3.93;3.43;;;33.80;38.00;;;;;;4993351;28;20415;-77
2022/07/19 11:03:25;;;;;;;3.40;2.67;;;33.80;37.10;;;;;;4994163;28;20457;-78
2022/07/19 11:06:02;;;;;;;9.40;2.83;;;34.00;38.00;;;;;;5012387;28;20426;-77
2022/07/19 11:08:39;;;;;;;3.27;2.90;;;34.00;36.90;;;;;;4994432;28;20470;-77
2022/07/19 11:11:14;;;;;;;6.30;2.90;;;34.00;38.00;;;;;;5012046;28;20519;-76
2022/07/19 11:13:44;;;;;;;7.67;3.37;;;34.10;38.00;;;;;;5012791;28;20493;-77
2022/07/19 11:16:10;;;;;;;6.20;2.53;;;34.00;36.80;;;;;;5012424;28;20455;-78
2022/07/19 11:18:35;;;;;;;5.80;2.90;;;34.10;36.70;;;;;;5013614;28;21231;-77
2022/07/19 11:21:03;;;;;;;4.37;3.03;;;33.90;36.70;;;;;;5012543;28;20192;-77
2022/07/19 11:23:31;;;;;;;5.10;3.23;;;34.00;36.20;;;;;;4993862;28;20668;-77
2022/07/19 11:26:11;;;;;;;8.80;2.57;;;34.10;37.70;;;;;;5012036;28;21086;-76
2022/07/19 11:28:40;;;;;;;6.80;3.20;;;34.10;36.60;;;;;;5012106;28;20419;-77
2022/07/19 11:31:19;;;;;;;3.17;2.97;;;33.90;35.80;;;;;;5011761;28;20420;-77
2022/07/19 11:33:47;;;;;;;3.70;2.63;;;34.10;37.20;;;;;;5012184;28;20467;-78
2022/07/19 11:36:15;;;;;;;3.97;2.60;;;34.10;35.80;;;;;;4994442;28;20455;-77
2022/07/19 11:38:42;;;;;;;3.13;2.13;;;34.10;35.80;;;;;;4993723;28;20427;-76
2022/07/19 11:41:29;;;;;;;4.80;2.50;;;34.20;35.90;;;;;;5011806;28;20412;-77
2022/07/19 11:44:04;;;;;;;6.33;3.30;;;34.40;36.50;;;;;;4994925;28;20455;-78
2022/07/19 11:46:37;;;;;;;5.97;2.97;;;34.40;35.70;;;;;;5011814;28;20859;-78
2022/07/19 11:49:04;;;;;;;6.43;2.30;;;34.50;35.80;;;;;;5011620;28;20503;-78
2022/07/19 11:51:31;;;;;;;5.23;2.10;;;34.70;35.60;;;;;;5011666;28;20424;-78
2022/07/19 11:53:58;;;;;;;5.23;2.67;;;34.70;35.60;;;;;;5012013;28;20996;-78
2022/07/19 11:56:26;;;;;;;4.93;2.93;;;34.60;35.60;;;;;;5013068;28;20416;-77
2022/07/19 11:58:53;;;;;;;6.10;2.70;;;34.40;35.20;;;;;;5010995;28;20419;-77
2022/07/19 12:01:27;;;;;;;5.73;2.57;;;34.30;35.20;;;;;;5010464;28;20501;-77
2022/07/19 12:04:04;;;;;;;6.60;2.80;;;34.40;37.00;;;;;;5010053;28;20412;-77
2022/07/19 12:06:48;;;;;;;5.00;3.00;;;34.50;36.60;;;;;;4975714;28;20485;-77
2022/07/19 12:09:26;;;;;;;4.43;2.80;;;34.70;35.40;;;;;;5009707;28;20408;-77
2022/07/19 12:11:53;;;;;;;10.87;2.80;;;34.70;34.70;;;;;;5009780;28;20416;-77
2022/07/19 12:14:21;;;;;;;3.53;2.50;;;34.60;34.40;;;;;;5009626;28;20464;-77
2022/07/19 12:17:07;;;;;;;3.73;2.10;;;34.60;34.90;;;;;;5009801;28;20450;-77
2022/07/19 12:19:33;;;;;;;4.53;2.50;;;34.50;33.60;;;;;;5010073;28;20412;-77
2022/07/19 12:21:58;;;;;;;5.13;2.70;;;34.40;34.10;;;;;;4993078;28;20420;-77
2022/07/19 12:24:26;;;;;;;9.20;2.50;;;34.60;34.10;;;;;;5010285;28;20228;-77
2022/07/19 12:26:54;;;;;;;6.90;2.30;;;34.60;34.70;;;;;;4993433;28;20236;-77
2022/07/19 12:29:22;;;;;;;7.33;2.57;;;34.80;34.00;;;;;;5010968;28;20459;-76
2022/07/19 12:31:50;;;;;;;5.17;2.20;;;34.90;34.40;;;;;;4993039;28;20727;-76
2022/07/19 12:34:16;;;;;;;3.00;2.10;;;35.00;32.90;;;;;;5010819;28;21302;-76
2022/07/19 12:36:42;;;;;;;4.80;2.93;;;35.10;31.90;;;;;;5011199;28;20438;-76
2022/07/19 12:39:37;;;;;;;4.63;2.70;;;35.10;31.70;;;;;;5013897;28;20495;-77
2022/07/19 12:42:05;;;;;;;10.20;2.70;;;35.20;31.60;;;;;;4974667;28;20279;-77
2022/07/19 12:44:32;;;;;;;9.00;2.80;;;35.30;32.70;;;;;;5013134;28;21038;-77
2022/07/19 12:46:59;;;;;;;6.43;2.20;;;35.30;31.40;;;;;;5011965;28;20917;-76
2022/07/19 12:49:25;;;;;;;3.10;2.70;;;35.30;31.50;;;;;;5012245;28;20486;-76
2022/07/19 12:51:52;;;;;;;3.83;2.70;;;35.30;31.80;;;;;;5010258;28;20917;-77
2022/07/19 12:54:18;;;;;;;5.03;2.30;;;35.30;30.50;;;;;;5009529;28;20208;-76
2022/07/19 12:56:43;;;;;;;9.00;2.30;;;35.20;30.30;;;;;;5008689;28;20432;-76